DIMMC EDDV-EDDE
Flight info
| Callsign | DIMMC |
|---|---|
| Flight time | 0h 50m |
| Altitude | 7000 |
| Route | POVEL3F POVEL Z94 GALMA M736 RELKO RELKO1V |
| Aircraft | DA62/L-SDFGRY/C |
Departure
| Time | 2026-04-24 13:46 |
|---|---|
| Airport | Hannover Airport (EDDV) |
Arrival
| Time | 2026-04-24 14:37 |
|---|---|
| Airport | Erfurt-Weimar Airport (EDDE) |
| Time | Latitude | Longitude | Altitude | Speed | Heading |
|---|---|---|---|---|---|
| 2026-04-24 13:35 | 52.46295 | 9.69218 | 176 ft | 0 kts | 151° |
| 2026-04-24 13:39 | 52.46292 | 9.69226 | 176 ft | 0 kts | 62° |
| 2026-04-24 13:39 | 52.46302 | 9.69255 | 176 ft | 4 kts | 61° |
| 2026-04-24 13:39 | 52.46306 | 9.69268 | 176 ft | 0 kts | 60° |
| 2026-04-24 13:40 | 52.46340 | 9.69282 | 176 ft | 8 kts | 310° |
| 2026-04-24 13:40 | 52.46354 | 9.69197 | 176 ft | 9 kts | 246° |
| 2026-04-24 13:40 | 52.46317 | 9.69048 | 177 ft | 18 kts | 251° |
| 2026-04-24 13:40 | 52.46267 | 9.68887 | 175 ft | 15 kts | 265° |
| 2026-04-24 13:41 | 52.46235 | 9.68748 | 175 ft | 12 kts | 214° |
| 2026-04-24 13:41 | 52.46156 | 9.68767 | 174 ft | 14 kts | 133° |
| 2026-04-24 13:41 | 52.46077 | 9.68873 | 173 ft | 16 kts | 142° |
| 2026-04-24 13:41 | 52.45982 | 9.68994 | 172 ft | 18 kts | 142° |
| 2026-04-24 13:42 | 52.45917 | 9.69073 | 172 ft | 12 kts | 141° |
| 2026-04-24 13:42 | 52.45844 | 9.69163 | 172 ft | 14 kts | 144° |
| 2026-04-24 13:42 | 52.45766 | 9.69184 | 172 ft | 11 kts | 191° |
| 2026-04-24 13:42 | 52.45695 | 9.69150 | 173 ft | 11 kts | 188° |
| 2026-04-24 13:43 | 52.45629 | 9.69175 | 175 ft | 10 kts | 126° |
| 2026-04-24 13:43 | 52.45619 | 9.69286 | 176 ft | 11 kts | 92° |
| 2026-04-24 13:43 | 52.45615 | 9.69431 | 174 ft | 14 kts | 92° |
| 2026-04-24 13:43 | 52.45610 | 9.69607 | 175 ft | 16 kts | 93° |
| 2026-04-24 13:44 | 52.45604 | 9.69788 | 176 ft | 17 kts | 93° |
| 2026-04-24 13:44 | 52.45598 | 9.69995 | 174 ft | 19 kts | 93° |
| 2026-04-24 13:44 | 52.45592 | 9.70214 | 176 ft | 19 kts | 92° |
| 2026-04-24 13:44 | 52.45588 | 9.70395 | 173 ft | 16 kts | 92° |
| 2026-04-24 13:45 | 52.45583 | 9.70584 | 173 ft | 17 kts | 97° |
| 2026-04-24 13:45 | 52.45524 | 9.70673 | 174 ft | 3 kts | 175° |
| 2026-04-24 13:45 | 52.45468 | 9.70673 | 173 ft | 11 kts | 184° |
| 2026-04-24 13:45 | 52.45419 | 9.70607 | 174 ft | 8 kts | 257° |
| 2026-04-24 13:46 | 52.45422 | 9.70325 | 169 ft | 55 kts | 273° |
| 2026-04-24 13:46 | 52.45457 | 9.69475 | 236 ft | 85 kts | 275° |
| 2026-04-24 13:46 | 52.45516 | 9.68466 | 492 ft | 92 kts | 277° |
| 2026-04-24 13:46 | 52.45613 | 9.67421 | 809 ft | 93 kts | 281° |
| 2026-04-24 13:47 | 52.45737 | 9.66353 | 1122 ft | 95 kts | 282° |
| 2026-04-24 13:47 | 52.45825 | 9.65307 | 1340 ft | 104 kts | 274° |
| 2026-04-24 13:47 | 52.45626 | 9.64032 | 1413 ft | 117 kts | 271° |
| 2026-04-24 13:47 | 52.45638 | 9.62709 | 1625 ft | 116 kts | 274° |
| 2026-04-24 13:48 | 52.45658 | 9.61387 | 1836 ft | 117 kts | 275° |
| 2026-04-24 13:48 | 52.45686 | 9.60049 | 2047 ft | 118 kts | 276° |
| 2026-04-24 13:48 | 52.45717 | 9.58700 | 2252 ft | 119 kts | 276° |
| 2026-04-24 13:48 | 52.45749 | 9.57351 | 2457 ft | 120 kts | 276° |
| 2026-04-24 13:49 | 52.45782 | 9.55939 | 2666 ft | 128 kts | 276° |
| 2026-04-24 13:49 | 52.45606 | 9.54440 | 2869 ft | 140 kts | 255° |
| 2026-04-24 13:49 | 52.45050 | 9.53070 | 3080 ft | 151 kts | 232° |
| 2026-04-24 13:49 | 52.44156 | 9.52073 | 3291 ft | 159 kts | 216° |
| 2026-04-24 13:50 | 52.43184 | 9.51169 | 3495 ft | 161 kts | 217° |
| 2026-04-24 13:50 | 52.42211 | 9.50247 | 3689 ft | 162 kts | 217° |
| 2026-04-24 13:50 | 52.41238 | 9.49326 | 3895 ft | 164 kts | 217° |
| 2026-04-24 13:50 | 52.40244 | 9.48385 | 4094 ft | 165 kts | 217° |
| 2026-04-24 13:51 | 52.39234 | 9.47428 | 4180 ft | 173 kts | 216° |
| 2026-04-24 13:51 | 52.38126 | 9.46508 | 4175 ft | 186 kts | 202° |
| 2026-04-24 13:51 | 52.36796 | 9.46323 | 4175 ft | 199 kts | 175° |
| 2026-04-24 13:51 | 52.35480 | 9.47081 | 4176 ft | 204 kts | 148° |
| 2026-04-24 13:52 | 52.34472 | 9.48690 | 4176 ft | 203 kts | 120° |
| 2026-04-24 13:52 | 52.33904 | 9.50777 | 4177 ft | 201 kts | 105° |
| 2026-04-24 13:52 | 52.33423 | 9.52900 | 4176 ft | 202 kts | 106° |
| 2026-04-24 13:52 | 52.32925 | 9.55055 | 4179 ft | 203 kts | 106° |
| 2026-04-24 13:53 | 52.32418 | 9.57218 | 4177 ft | 204 kts | 107° |
| 2026-04-24 13:53 | 52.31910 | 9.59388 | 4177 ft | 205 kts | 107° |
| 2026-04-24 13:53 | 52.31402 | 9.61561 | 4177 ft | 204 kts | 107° |
| 2026-04-24 13:53 | 52.30894 | 9.63728 | 4176 ft | 204 kts | 107° |
| 2026-04-24 13:54 | 52.30386 | 9.65895 | 4175 ft | 204 kts | 107° |
| 2026-04-24 13:54 | 52.29878 | 9.68063 | 4176 ft | 204 kts | 107° |
| 2026-04-24 13:54 | 52.29370 | 9.70227 | 4176 ft | 204 kts | 107° |
| 2026-04-24 13:54 | 52.28861 | 9.72390 | 4174 ft | 204 kts | 107° |
| 2026-04-24 13:55 | 52.28353 | 9.74551 | 4176 ft | 203 kts | 107° |
| 2026-04-24 13:55 | 52.27845 | 9.76710 | 4178 ft | 203 kts | 107° |
| 2026-04-24 13:55 | 52.27342 | 9.78843 | 4178 ft | 203 kts | 107° |
| 2026-04-24 13:55 | 52.26832 | 9.81001 | 4177 ft | 204 kts | 107° |
| 2026-04-24 13:56 | 52.26331 | 9.83115 | 4352 ft | 195 kts | 107° |
| 2026-04-24 13:56 | 52.25850 | 9.85150 | 4558 ft | 189 kts | 106° |
| 2026-04-24 13:56 | 52.25382 | 9.87128 | 4764 ft | 185 kts | 106° |
| 2026-04-24 13:56 | 52.24981 | 9.89094 | 4966 ft | 180 kts | 96° |
| 2026-04-24 13:57 | 52.24745 | 9.91059 | 5178 ft | 178 kts | 95° |
| 2026-04-24 13:57 | 52.24500 | 9.93035 | 5376 ft | 177 kts | 97° |
| 2026-04-24 13:57 | 52.24251 | 9.95000 | 5576 ft | 177 kts | 96° |
| 2026-04-24 13:57 | 52.24004 | 9.96959 | 5775 ft | 176 kts | 97° |
| 2026-04-24 13:58 | 52.23757 | 9.98908 | 5978 ft | 175 kts | 96° |
| 2026-04-24 13:58 | 52.23512 | 10.00849 | 6180 ft | 174 kts | 96° |
| 2026-04-24 13:58 | 52.23266 | 10.02790 | 6388 ft | 174 kts | 96° |
| 2026-04-24 13:58 | 52.23021 | 10.04725 | 6586 ft | 175 kts | 96° |
| 2026-04-24 13:59 | 52.22857 | 10.06017 | 6718 ft | 175 kts | 96° |
| 2026-04-24 13:59 | 52.22531 | 10.08586 | 6971 ft | 175 kts | 96° |
| 2026-04-24 13:59 | 52.22283 | 10.10536 | 7165 ft | 175 kts | 96° |
| 2026-04-24 13:59 | 52.22034 | 10.12485 | 7351 ft | 176 kts | 96° |
| 2026-04-24 14:00 | 52.21785 | 10.14438 | 7543 ft | 176 kts | 96° |
| 2026-04-24 14:00 | 52.21533 | 10.16412 | 7666 ft | 182 kts | 96° |
| 2026-04-24 14:00 | 52.21269 | 10.18491 | 7669 ft | 191 kts | 96° |
| 2026-04-24 14:00 | 52.20992 | 10.20650 | 7671 ft | 197 kts | 96° |
| 2026-04-24 14:01 | 52.20708 | 10.22851 | 7674 ft | 200 kts | 97° |
| 2026-04-24 14:01 | 52.20419 | 10.25090 | 7675 ft | 203 kts | 97° |
| 2026-04-24 14:01 | 52.20132 | 10.27316 | 7675 ft | 204 kts | 97° |
| 2026-04-24 14:01 | 52.19839 | 10.29587 | 7674 ft | 204 kts | 97° |
| 2026-04-24 14:02 | 52.19546 | 10.31851 | 7679 ft | 204 kts | 97° |
| 2026-04-24 14:02 | 52.19314 | 10.34126 | 7673 ft | 200 kts | 83° |
| 2026-04-24 14:02 | 52.19611 | 10.36293 | 7674 ft | 195 kts | 66° |
| 2026-04-24 14:02 | 52.20038 | 10.38388 | 7675 ft | 194 kts | 65° |
| 2026-04-24 14:03 | 52.20326 | 10.39766 | 7676 ft | 194 kts | 65° |
| 2026-04-24 14:03 | 52.20763 | 10.41858 | 7687 ft | 195 kts | 65° |
| 2026-04-24 14:03 | 52.21201 | 10.43960 | 7688 ft | 196 kts | 65° |
| 2026-04-24 14:03 | 52.21779 | 10.46746 | 7689 ft | 196 kts | 66° |
| 2026-04-24 14:04 | 52.22019 | 10.48208 | 7688 ft | 199 kts | 73° |
| 2026-04-24 14:04 | 52.22159 | 10.50467 | 7687 ft | 203 kts | 84° |
| 2026-04-24 14:04 | 52.21982 | 10.52770 | 7684 ft | 208 kts | 101° |
| 2026-04-24 14:04 | 52.21413 | 10.54964 | 7682 ft | 211 kts | 114° |
| 2026-04-24 14:05 | 52.20719 | 10.57047 | 7682 ft | 212 kts | 114° |
| 2026-04-24 14:05 | 52.20038 | 10.59190 | 7681 ft | 211 kts | 113° |
| 2026-04-24 14:05 | 52.19393 | 10.61326 | 7680 ft | 211 kts | 112° |
| 2026-04-24 14:05 | 52.18745 | 10.63471 | 7679 ft | 211 kts | 112° |
| 2026-04-24 14:06 | 52.18093 | 10.65612 | 7679 ft | 211 kts | 112° |
| 2026-04-24 14:06 | 52.17438 | 10.67754 | 7678 ft | 211 kts | 112° |
| 2026-04-24 14:06 | 52.16783 | 10.69897 | 7676 ft | 211 kts | 112° |
| 2026-04-24 14:06 | 52.16130 | 10.72037 | 7674 ft | 211 kts | 112° |
| 2026-04-24 14:07 | 52.15475 | 10.74174 | 7673 ft | 210 kts | 112° |
| 2026-04-24 14:07 | 52.14822 | 10.76308 | 7672 ft | 211 kts | 112° |
| 2026-04-24 14:07 | 52.14176 | 10.78414 | 7671 ft | 211 kts | 112° |
| 2026-04-24 14:07 | 52.13519 | 10.80558 | 7670 ft | 211 kts | 112° |
| 2026-04-24 14:08 | 52.12694 | 10.82544 | 7666 ft | 215 kts | 132° |
| 2026-04-24 14:08 | 52.11483 | 10.83972 | 7660 ft | 216 kts | 151° |
| 2026-04-24 14:08 | 52.10152 | 10.85110 | 7660 ft | 216 kts | 152° |
| 2026-04-24 14:08 | 52.08826 | 10.86254 | 7668 ft | 216 kts | 151° |
| 2026-04-24 14:09 | 52.07498 | 10.87409 | 7667 ft | 216 kts | 151° |
| 2026-04-24 14:09 | 52.06170 | 10.88562 | 7666 ft | 217 kts | 151° |
| 2026-04-24 14:09 | 52.04855 | 10.89701 | 7665 ft | 217 kts | 152° |
| 2026-04-24 14:09 | 52.03523 | 10.90854 | 7663 ft | 217 kts | 152° |
| 2026-04-24 14:10 | 52.02191 | 10.92005 | 7662 ft | 217 kts | 152° |
| 2026-04-24 14:10 | 52.00858 | 10.93158 | 7652 ft | 217 kts | 151° |
| 2026-04-24 14:10 | 51.99526 | 10.94308 | 7652 ft | 217 kts | 151° |
| 2026-04-24 14:10 | 51.98194 | 10.95458 | 7653 ft | 216 kts | 151° |
| 2026-04-24 14:11 | 51.96866 | 10.96603 | 7653 ft | 216 kts | 151° |
| 2026-04-24 14:11 | 51.95537 | 10.97749 | 7649 ft | 216 kts | 151° |
| 2026-04-24 14:11 | 51.92883 | 11.00034 | 7649 ft | 216 kts | 152° |
| 2026-04-24 14:12 | 51.91551 | 11.01181 | 7651 ft | 217 kts | 152° |
| 2026-04-24 14:12 | 51.90220 | 11.02324 | 7650 ft | 216 kts | 151° |
| 2026-04-24 14:12 | 51.88889 | 11.03468 | 7650 ft | 217 kts | 151° |
| 2026-04-24 14:12 | 51.87574 | 11.04596 | 7649 ft | 217 kts | 151° |
| 2026-04-24 14:13 | 51.86225 | 11.05753 | 7648 ft | 216 kts | 152° |
| 2026-04-24 14:13 | 51.84911 | 11.06880 | 7653 ft | 217 kts | 151° |
| 2026-04-24 14:13 | 51.83576 | 11.08024 | 7653 ft | 217 kts | 151° |
| 2026-04-24 14:13 | 51.82246 | 11.09163 | 7651 ft | 216 kts | 152° |
| 2026-04-24 14:14 | 51.80915 | 11.10301 | 7647 ft | 216 kts | 152° |
| 2026-04-24 14:14 | 51.79584 | 11.11439 | 7648 ft | 216 kts | 152° |
| 2026-04-24 14:14 | 51.76924 | 11.13712 | 7645 ft | 216 kts | 152° |
| 2026-04-24 14:15 | 51.75595 | 11.14846 | 7647 ft | 216 kts | 152° |
| 2026-04-24 14:15 | 51.74269 | 11.15976 | 7643 ft | 215 kts | 151° |
| 2026-04-24 14:15 | 51.72960 | 11.17092 | 7643 ft | 215 kts | 151° |
| 2026-04-24 14:15 | 51.71633 | 11.18221 | 7645 ft | 216 kts | 152° |
| 2026-04-24 14:16 | 51.70302 | 11.19354 | 7646 ft | 216 kts | 152° |
| 2026-04-24 14:16 | 51.68970 | 11.20487 | 7659 ft | 216 kts | 152° |
| 2026-04-24 14:16 | 51.67635 | 11.21621 | 7659 ft | 217 kts | 152° |
| 2026-04-24 14:17 | 51.64961 | 11.23892 | 7653 ft | 217 kts | 152° |
| 2026-04-24 14:17 | 51.63622 | 11.25027 | 7656 ft | 217 kts | 152° |
| 2026-04-24 14:17 | 51.60968 | 11.27275 | 7654 ft | 216 kts | 152° |
| 2026-04-24 14:18 | 51.59636 | 11.28404 | 7659 ft | 217 kts | 152° |
| 2026-04-24 14:18 | 51.58303 | 11.29532 | 7657 ft | 216 kts | 152° |
| 2026-04-24 14:18 | 51.56970 | 11.30660 | 7657 ft | 216 kts | 152° |
| 2026-04-24 14:18 | 51.55634 | 11.31789 | 7656 ft | 216 kts | 152° |
| 2026-04-24 14:19 | 51.54306 | 11.32910 | 7652 ft | 215 kts | 152° |
| 2026-04-24 14:19 | 51.52982 | 11.34029 | 7653 ft | 215 kts | 152° |
| 2026-04-24 14:19 | 51.51654 | 11.35148 | 7654 ft | 215 kts | 152° |
| 2026-04-24 14:19 | 51.50326 | 11.36269 | 7653 ft | 215 kts | 152° |
| 2026-04-24 14:20 | 51.48996 | 11.37388 | 7643 ft | 216 kts | 152° |
| 2026-04-24 14:20 | 51.47687 | 11.38490 | 7643 ft | 215 kts | 152° |
| 2026-04-24 14:20 | 51.46362 | 11.39605 | 7639 ft | 214 kts | 152° |
| 2026-04-24 14:20 | 51.45041 | 11.40715 | 7641 ft | 214 kts | 152° |
| 2026-04-24 14:21 | 51.43723 | 11.41823 | 7642 ft | 214 kts | 152° |
| 2026-04-24 14:21 | 51.42404 | 11.42930 | 7642 ft | 213 kts | 152° |
| 2026-04-24 14:21 | 51.41088 | 11.44034 | 7643 ft | 213 kts | 152° |
| 2026-04-24 14:21 | 51.39751 | 11.44996 | 7640 ft | 214 kts | 165° |
| 2026-04-24 14:22 | 51.38277 | 11.45271 | 7643 ft | 213 kts | 178° |
| 2026-04-24 14:22 | 51.36793 | 11.45405 | 7642 ft | 213 kts | 178° |
| 2026-04-24 14:22 | 51.33829 | 11.45694 | 7643 ft | 214 kts | 178° |
| 2026-04-24 14:23 | 51.32345 | 11.45839 | 7644 ft | 213 kts | 178° |
| 2026-04-24 14:23 | 51.30865 | 11.45983 | 7643 ft | 213 kts | 178° |
| 2026-04-24 14:23 | 51.29392 | 11.46127 | 7645 ft | 212 kts | 178° |
| 2026-04-24 14:23 | 51.27917 | 11.46270 | 7645 ft | 212 kts | 178° |
| 2026-04-24 14:24 | 51.26440 | 11.46412 | 7643 ft | 212 kts | 178° |
| 2026-04-24 14:24 | 51.24980 | 11.46552 | 7642 ft | 213 kts | 178° |
| 2026-04-24 14:24 | 51.23502 | 11.46695 | 7647 ft | 213 kts | 178° |
| 2026-04-24 14:24 | 51.22020 | 11.46838 | 7646 ft | 213 kts | 178° |
| 2026-04-24 14:25 | 51.20537 | 11.46980 | 7645 ft | 213 kts | 178° |
| 2026-04-24 14:25 | 51.19057 | 11.47123 | 7646 ft | 213 kts | 178° |
| 2026-04-24 14:25 | 51.17571 | 11.47265 | 7659 ft | 214 kts | 178° |
| 2026-04-24 14:25 | 51.16089 | 11.47407 | 7657 ft | 212 kts | 178° |
| 2026-04-24 14:26 | 51.14614 | 11.47549 | 7659 ft | 212 kts | 178° |
| 2026-04-24 14:26 | 51.13138 | 11.47691 | 7658 ft | 212 kts | 178° |
| 2026-04-24 14:26 | 51.11665 | 11.47831 | 7656 ft | 212 kts | 178° |
| 2026-04-24 14:26 | 51.10194 | 11.47972 | 7659 ft | 212 kts | 178° |
| 2026-04-24 14:27 | 51.08736 | 11.48111 | 7661 ft | 212 kts | 179° |
| 2026-04-24 14:27 | 51.07265 | 11.47828 | 7655 ft | 210 kts | 200° |
| 2026-04-24 14:27 | 51.06006 | 11.46790 | 7648 ft | 204 kts | 221° |
| 2026-04-24 14:27 | 51.05052 | 11.45166 | 7650 ft | 199 kts | 241° |
| 2026-04-24 14:28 | 51.04430 | 11.43219 | 7647 ft | 197 kts | 250° |
| 2026-04-24 14:28 | 51.03841 | 11.41253 | 7648 ft | 198 kts | 248° |
| 2026-04-24 14:28 | 51.03018 | 11.39478 | 7648 ft | 203 kts | 229° |
| 2026-04-24 14:28 | 51.01831 | 11.38211 | 7644 ft | 209 kts | 208° |
| 2026-04-24 14:29 | 51.00417 | 11.37637 | 7652 ft | 211 kts | 189° |
| 2026-04-24 14:29 | 50.98955 | 11.37348 | 7648 ft | 212 kts | 189° |
| 2026-04-24 14:29 | 50.97541 | 11.36757 | 7644 ft | 210 kts | 208° |
| 2026-04-24 14:29 | 50.96340 | 11.35411 | 7434 ft | 214 kts | 230° |
| 2026-04-24 14:30 | 50.95741 | 11.34178 | 7287 ft | 213 kts | 243° |
| 2026-04-24 14:30 | 50.95165 | 11.31252 | 6994 ft | 209 kts | 270° |
| 2026-04-24 14:30 | 50.95273 | 11.28977 | 6780 ft | 207 kts | 282° |
| 2026-04-24 14:30 | 50.95473 | 11.26706 | 6561 ft | 208 kts | 282° |
| 2026-04-24 14:31 | 50.95661 | 11.24428 | 6330 ft | 208 kts | 281° |
| 2026-04-24 14:31 | 50.95842 | 11.22173 | 6053 ft | 192 kts | 281° |
| 2026-04-24 14:31 | 50.95998 | 11.20179 | 5388 ft | 172 kts | 282° |
| 2026-04-24 14:31 | 50.96145 | 11.18537 | 5133 ft | 132 kts | 281° |
| 2026-04-24 14:32 | 50.96246 | 11.17234 | 4886 ft | 108 kts | 282° |
| 2026-04-24 14:32 | 50.96335 | 11.16127 | 4647 ft | 96 kts | 283° |
| 2026-04-24 14:32 | 50.96420 | 11.15098 | 4413 ft | 92 kts | 284° |
| 2026-04-24 14:32 | 50.96504 | 11.14099 | 4187 ft | 99 kts | 283° |
| 2026-04-24 14:33 | 50.96614 | 11.12824 | 3978 ft | 130 kts | 281° |
| 2026-04-24 14:33 | 50.96722 | 11.11452 | 3742 ft | 113 kts | 280° |
| 2026-04-24 14:33 | 50.96816 | 11.10274 | 3471 ft | 107 kts | 280° |
| 2026-04-24 14:33 | 50.96910 | 11.09114 | 3221 ft | 108 kts | 280° |
| 2026-04-24 14:34 | 50.97004 | 11.07953 | 2958 ft | 102 kts | 281° |
| 2026-04-24 14:34 | 50.97090 | 11.06882 | 2727 ft | 96 kts | 280° |
| 2026-04-24 14:34 | 50.97172 | 11.05847 | 2462 ft | 91 kts | 282° |
| 2026-04-24 14:34 | 50.97257 | 11.04902 | 2263 ft | 84 kts | 282° |
| 2026-04-24 14:35 | 50.97340 | 11.04007 | 1973 ft | 80 kts | 283° |
| 2026-04-24 14:35 | 50.97412 | 11.03108 | 1773 ft | 86 kts | 282° |
| 2026-04-24 14:35 | 50.97499 | 11.02137 | 1575 ft | 90 kts | 280° |
| 2026-04-24 14:35 | 50.97582 | 11.01146 | 1442 ft | 92 kts | 278° |
| 2026-04-24 14:36 | 50.97652 | 11.00140 | 1311 ft | 91 kts | 278° |
| 2026-04-24 14:36 | 50.97727 | 10.99211 | 1195 ft | 81 kts | 278° |
| 2026-04-24 14:36 | 50.97795 | 10.98319 | 1122 ft | 82 kts | 276° |
| 2026-04-24 14:36 | 50.97862 | 10.97452 | 1071 ft | 75 kts | 277° |
| 2026-04-24 14:37 | 50.97919 | 10.96673 | 1038 ft | 67 kts | 277° |
| 2026-04-24 14:37 | 50.97972 | 10.96028 | 1034 ft | 47 kts | 276° |
| 2026-04-24 14:37 | 50.97995 | 10.95653 | 1035 ft | 23 kts | 274° |
| 2026-04-24 14:37 | 50.98009 | 10.95449 | 1038 ft | 16 kts | 269° |
| 2026-04-24 14:38 | 50.97957 | 10.95376 | 1039 ft | 3 kts | 185° |
| 2026-04-24 14:38 | 50.97956 | 10.95376 | 1039 ft | 0 kts | 185° |
| 2026-04-24 14:38 | 50.97908 | 10.95368 | 1038 ft | 12 kts | 186° |
| 2026-04-24 14:38 | 50.97862 | 10.95360 | 1038 ft | 4 kts | 185° |
| 2026-04-24 14:39 | 50.97827 | 10.95357 | 1038 ft | 5 kts | 165° |
| 2026-04-24 14:39 | 50.97800 | 10.95408 | 1038 ft | 7 kts | 101° |
| 2026-04-24 14:39 | 50.97793 | 10.95496 | 1037 ft | 9 kts | 97° |
| 2026-04-24 14:39 | 50.97783 | 10.95616 | 1037 ft | 12 kts | 96° |
| 2026-04-24 14:40 | 50.97772 | 10.95754 | 1036 ft | 13 kts | 97° |
| 2026-04-24 14:40 | 50.97759 | 10.95910 | 1035 ft | 15 kts | 97° |
| 2026-04-24 14:40 | 50.97746 | 10.96080 | 1034 ft | 16 kts | 97° |
| 2026-04-24 14:40 | 50.97731 | 10.96262 | 1034 ft | 17 kts | 97° |
| 2026-04-24 14:41 | 50.97717 | 10.96448 | 1033 ft | 11 kts | 97° |
| 2026-04-24 14:41 | 50.97706 | 10.96586 | 1032 ft | 14 kts | 97° |
| 2026-04-24 14:41 | 50.97694 | 10.96745 | 1031 ft | 15 kts | 97° |
| 2026-04-24 14:41 | 50.97644 | 10.96800 | 1031 ft | 8 kts | 195° |
| 2026-04-24 14:42 | 50.97607 | 10.96787 | 1031 ft | 9 kts | 191° |
| 2026-04-24 14:42 | 50.97598 | 10.96708 | 1031 ft | 5 kts | 280° |
| 2026-04-24 14:42 | 50.97599 | 10.96692 | 1031 ft | 0 kts | 280° |